Flight Track Log - Related Links

Times and Time Zones

All times are in EDT time to prevent confusion due to time zone crossing. See the N510SR flight status page for this flight to view local times or setup timezone preferences in your user account.

Time Position Orientation Groundspeed Altitude Reporting Facility
EDT Latitude Longitude Course Direction KTS MPH feet Rate Location/Type
Tue 07:39:36 AM 40.8833 -72.5833 36° Northeast 187 215 2,100  Level New York TRACON
Tue 07:40:52 AM 40.9333 -72.5361 36° Northeast 201 231 3,400 2,294 Climbing Boston Center
Tue 07:41:52 AM 40.9269 -72.4428 95° East 189 217 7,300 3,550 Climbing Boston Center
Tue 07:42:52 AM 40.9311 -72.3494 87° East 223 257 10,500 2,550 Climbing Boston Center
Tue 07:43:52 AM 40.9853 -72.2806 44° Northeast 242 278 12,400 1,950 Climbing Boston Center
Tue 07:44:52 AM 41.0664 -72.2089 34° Northeast 285 328 14,400 2,250 Climbing Boston Center
Tue 07:45:52 AM 41.1517 -72.1314 34° Northeast 330 380 16,900 2,450 Climbing Boston Center
Tue 07:46:52 AM 41.2492 -72.0425 34° Northeast 359 413 19,300 2,150 Climbing Boston Center
Tue 07:47:52 AM 41.3406 -71.9564 35° Northeast 383 441 21,200 1,850 Climbing Boston Center
Tue 07:48:52 AM 41.4381 -71.8669 35° Northeast 403 464 23,000 900 Climbing Boston Center
Tue 07:49:52 AM 41.5439 -71.7661 35° Northeast 435 501 23,000  Level Boston Center
Tue 07:50:52 AM 41.6475 -71.6678 35° Northeast 451 519 23,000  Level Boston Center
Tue 07:51:52 AM 41.7383 -71.5583 42° Northeast 451 519 23,000  Level Boston Center
Tue 07:52:52 AM 41.8039 -71.4319 55° Northeast 445 512 23,000  Level Boston Center
Tue 07:53:52 AM 41.9050 -71.3103 42° Northeast 446 513 23,000  Level Boston Center
Tue 07:54:52 AM 41.9939 -71.2444 29° Northeast 446 513 23,000  Level Boston Center
Tue 07:55:52 AM 42.1078 -71.1697 26° Northeast 446 513 23,000  Level Boston Center
Tue 07:56:52 AM 42.2422 -71.0744 28° Northeast 446 513 23,000  Level Boston Center
Tue 07:57:52 AM 42.3494 -70.9961 28° Northeast 444 511 23,000  Level Boston Center
Tue 07:58:52 AM 42.4569 -70.9119 30° Northeast 438 504 23,000  Level Boston Center
Tue 07:59:52 AM 42.5578 -70.8250 32° Northeast 433 498 23,000  Level Boston Center
Tue 08:00:52 AM 42.6606 -70.7375 32° Northeast 428 493 23,000 -550 Level Boston Center
Tue 08:01:52 AM 42.7594 -70.6500 33° Northeast 428 493 21,900 -1,500 Descending Boston Center
Tue 08:02:52 AM 42.8603 -70.5650 32° Northeast 423 487 20,000 -2,000 Descending Boston Center
Tue 08:03:52 AM 42.9547 -70.4825 33° Northeast 416 479 17,900 -1,900 Descending Boston Center
Tue 08:04:52 AM 43.0469 -70.4031 32° Northeast 400 460 16,200 -1,750 Descending Boston Center
Tue 08:05:52 AM 43.1311 -70.3347 31° Northeast 393 452 14,400 -1,700 Descending Boston Center
Tue 08:06:52 AM 43.2344 -70.2742 23° Northeast 371 427 12,800 -1,364 Descending Boston Center
Tue 08:08:04 AM 43.3169 -70.2314 21° North 359 413 11,400 -1,227 Descending Boston Center
Tue 08:09:04 AM 43.4283 -70.1758 20° North 354 407 10,100 -650 Descending Boston Center
Tue 08:10:04 AM 43.5231 -70.1236 22° Northeast 338 389 10,100  Level Boston Center
Tue 08:11:04 AM 43.6036 -70.0833 20° North 338 389 10,100 -50 Level Boston Center
Tue 08:12:04 AM 43.7025 -70.0306 21° North 338 389 10,000  Descending Boston Center
Tue 08:13:04 AM 43.7769 -69.9931 20° North 327 376 10,100 -400 Climbing Boston Center
Tue 08:14:04 AM 43.8550 -69.9525 21° North 287 330 9,200 -955 Descending Boston Center
Tue 08:15:16 AM 43.9169 -69.9181 22° Northeast 266 306 8,000 -1,273 Descending Boston Center
Tue 08:16:16 AM 44.0033 -69.8742 20° North 266 306 6,400 -1,500 Descending Boston Center
Tue 08:17:16 AM 44.0797 -69.8333 21° North 266 306 5,000 -1,150 Descending Boston Center
Tue 08:18:16 AM 44.1353 -69.8047 20° North 266 306 4,100 -900 Descending Boston Center
Tue 08:20:00 AM 44.3024 -69.7905 20° North  Level FlightAware Approximate

Login

Don't have an account? Register now (free) for customized features, flight alerts, and more!